sensor_id;sensor_type;location;lat;lon;timestamp;P1;durP1;ratioP1;P2;durP2;ratioP2
40595;SDS011;26304;48.794;9.820;2023-07-31T00:02:48;2.28;;;1.50;;
40595;SDS011;26304;48.794;9.820;2023-07-31T00:08:31;2.38;;;1.40;;
40595;SDS011;26304;48.794;9.820;2023-07-31T00:14:14;2.35;;;1.17;;
40595;SDS011;26304;48.794;9.820;2023-07-31T00:19:56;2.08;;;1.40;;
40595;SDS011;26304;48.794;9.820;2023-07-31T00:25:41;2.65;;;1.40;;
40595;SDS011;26304;48.794;9.820;2023-07-31T00:31:25;2.65;;;1.40;;
40595;SDS011;26304;48.794;9.820;2023-07-31T00:37:07;2.80;;;1.52;;
40595;SDS011;26304;48.794;9.820;2023-07-31T00:42:51;1.58;;;1.33;;
40595;SDS011;26304;48.794;9.820;2023-07-31T00:48:34;3.72;;;1.48;;
40595;SDS011;26304;48.794;9.820;2023-07-31T00:54:17;3.88;;;1.33;;
40595;SDS011;26304;48.794;9.820;2023-07-31T01:00:02;2.38;;;1.52;;
40595;SDS011;26304;48.794;9.820;2023-07-31T01:05:47;1.67;;;1.35;;
40595;SDS011;26304;48.794;9.820;2023-07-31T01:11:36;2.45;;;1.50;;
40595;SDS011;26304;48.794;9.820;2023-07-31T01:17:25;3.05;;;1.42;;
40595;SDS011;26304;48.794;9.820;2023-07-31T01:23:17;2.88;;;1.45;;
40595;SDS011;26304;48.794;9.820;2023-07-31T01:29:17;2.42;;;1.55;;
40595;SDS011;26304;48.794;9.820;2023-07-31T01:35:07;1.60;;;1.20;;
40595;SDS011;26304;48.794;9.820;2023-07-31T01:40:50;1.77;;;1.42;;
40595;SDS011;26304;48.794;9.820;2023-07-31T01:46:35;2.03;;;1.27;;
40595;SDS011;26304;48.794;9.820;2023-07-31T01:52:17;1.85;;;1.55;;
40595;SDS011;26304;48.794;9.820;2023-07-31T01:58:00;2.42;;;1.50;;
40595;SDS011;26304;48.794;9.820;2023-07-31T02:03:43;1.42;;;1.30;;
40595;SDS011;26304;48.794;9.820;2023-07-31T02:09:26;3.03;;;1.63;;
40595;SDS011;26304;48.794;9.820;2023-07-31T02:15:09;2.42;;;1.40;;
40595;SDS011;26304;48.794;9.820;2023-07-31T02:20:53;1.48;;;1.10;;
40595;SDS011;26304;48.794;9.820;2023-07-31T02:26:35;2.28;;;1.40;;
40595;SDS011;26304;48.794;9.820;2023-07-31T02:32:18;2.88;;;1.23;;
40595;SDS011;26304;48.794;9.820;2023-07-31T02:38:01;2.53;;;1.70;;
40595;SDS011;26304;48.794;9.820;2023-07-31T02:43:44;3.75;;;1.83;;
40595;SDS011;26304;48.794;9.820;2023-07-31T02:49:26;2.47;;;1.33;;
40595;SDS011;26304;48.794;9.820;2023-07-31T02:55:10;1.95;;;1.48;;
40595;SDS011;26304;48.794;9.820;2023-07-31T03:00:52;1.98;;;1.30;;
40595;SDS011;26304;48.794;9.820;2023-07-31T03:06:35;2.15;;;1.60;;
40595;SDS011;26304;48.794;9.820;2023-07-31T03:12:18;1.48;;;1.20;;
40595;SDS011;26304;48.794;9.820;2023-07-31T03:18:01;5.25;;;1.65;;
40595;SDS011;26304;48.794;9.820;2023-07-31T03:23:43;1.77;;;1.30;;
40595;SDS011;26304;48.794;9.820;2023-07-31T03:29:27;3.55;;;1.30;;
40595;SDS011;26304;48.794;9.820;2023-07-31T03:35:09;2.90;;;1.63;;
40595;SDS011;26304;48.794;9.820;2023-07-31T03:40:52;2.75;;;1.63;;
40595;SDS011;26304;48.794;9.820;2023-07-31T03:46:36;2.50;;;1.60;;
40595;SDS011;26304;48.794;9.820;2023-07-31T03:52:18;2.22;;;1.40;;
40595;SDS011;26304;48.794;9.820;2023-07-31T03:58:00;2.13;;;1.45;;
40595;SDS011;26304;48.794;9.820;2023-07-31T04:03:44;3.90;;;1.52;;
40595;SDS011;26304;48.794;9.820;2023-07-31T04:09:26;2.33;;;1.65;;
40595;SDS011;26304;48.794;9.820;2023-07-31T04:15:09;3.20;;;1.70;;
40595;SDS011;26304;48.794;9.820;2023-07-31T04:20:53;1.92;;;1.48;;
40595;SDS011;26304;48.794;9.820;2023-07-31T04:26:35;3.30;;;1.60;;
40595;SDS011;26304;48.794;9.820;2023-07-31T04:32:18;5.72;;;2.38;;
40595;SDS011;26304;48.794;9.820;2023-07-31T04:38:03;2.13;;;1.52;;
40595;SDS011;26304;48.794;9.820;2023-07-31T04:43:45;3.15;;;1.67;;
40595;SDS011;26304;48.794;9.820;2023-07-31T04:49:27;1.67;;;1.40;;
40595;SDS011;26304;48.794;9.820;2023-07-31T04:55:11;1.45;;;1.35;;
40595;SDS011;26304;48.794;9.820;2023-07-31T05:00:54;2.17;;;1.10;;
40595;SDS011;26304;48.794;9.820;2023-07-31T05:06:36;2.63;;;1.77;;
40595;SDS011;26304;48.794;9.820;2023-07-31T05:12:20;1.65;;;1.50;;
40595;SDS011;26304;48.794;9.820;2023-07-31T05:18:02;2.20;;;1.40;;
40595;SDS011;26304;48.794;9.820;2023-07-31T05:23:45;2.90;;;1.25;;
40595;SDS011;26304;48.794;9.820;2023-07-31T05:29:30;4.30;;;1.80;;
40595;SDS011;26304;48.794;9.820;2023-07-31T05:35:12;1.88;;;1.30;;
40595;SDS011;26304;48.794;9.820;2023-07-31T05:40:54;3.30;;;1.50;;
40595;SDS011;26304;48.794;9.820;2023-07-31T05:46:38;1.67;;;1.23;;
40595;SDS011;26304;48.794;9.820;2023-07-31T05:52:20;3.38;;;1.30;;
40595;SDS011;26304;48.794;9.820;2023-07-31T05:58:03;1.25;;;1.00;;
40595;SDS011;26304;48.794;9.820;2023-07-31T06:03:46;2.58;;;1.27;;
40595;SDS011;26304;48.794;9.820;2023-07-31T06:09:29;2.10;;;1.08;;
40595;SDS011;26304;48.794;9.820;2023-07-31T06:15:11;2.10;;;1.30;;
40595;SDS011;26304;48.794;9.820;2023-07-31T06:20:55;2.95;;;1.42;;
40595;SDS011;26304;48.794;9.820;2023-07-31T06:26:38;1.10;;;1.00;;
40595;SDS011;26304;48.794;9.820;2023-07-31T06:32:20;1.58;;;1.00;;
40595;SDS011;26304;48.794;9.820;2023-07-31T06:38:04;1.80;;;1.08;;
40595;SDS011;26304;48.794;9.820;2023-07-31T06:43:46;1.50;;;1.27;;
40595;SDS011;26304;48.794;9.820;2023-07-31T06:49:29;1.40;;;1.20;;
40595;SDS011;26304;48.794;9.820;2023-07-31T06:55:19;1.80;;;0.95;;
40595;SDS011;26304;48.794;9.820;2023-07-31T07:01:02;1.52;;;1.42;;
40595;SDS011;26304;48.794;9.820;2023-07-31T07:06:44;2.13;;;1.60;;
40595;SDS011;26304;48.794;9.820;2023-07-31T07:12:29;1.05;;;1.02;;
40595;SDS011;26304;48.794;9.820;2023-07-31T07:18:12;1.30;;;1.00;;
40595;SDS011;26304;48.794;9.820;2023-07-31T07:23:54;1.25;;;1.15;;
40595;SDS011;26304;48.794;9.820;2023-07-31T07:29:38;1.23;;;1.13;;
40595;SDS011;26304;48.794;9.820;2023-07-31T07:35:21;1.17;;;1.05;;
40595;SDS011;26304;48.794;9.820;2023-07-31T07:41:03;1.33;;;1.23;;
40595;SDS011;26304;48.794;9.820;2023-07-31T07:46:47;1.15;;;1.05;;
40595;SDS011;26304;48.794;9.820;2023-07-31T07:52:29;1.20;;;1.10;;
40595;SDS011;26304;48.794;9.820;2023-07-31T07:58:12;1.20;;;1.02;;
40595;SDS011;26304;48.794;9.820;2023-07-31T08:03:55;1.20;;;0.90;;
40595;SDS011;26304;48.794;9.820;2023-07-31T08:09:38;1.00;;;1.00;;
40595;SDS011;26304;48.794;9.820;2023-07-31T08:15:20;0.88;;;0.77;;
40595;SDS011;26304;48.794;9.820;2023-07-31T08:21:04;1.83;;;1.20;;
40595;SDS011;26304;48.794;9.820;2023-07-31T08:26:47;1.25;;;0.90;;
40595;SDS011;26304;48.794;9.820;2023-07-31T08:32:30;1.10;;;0.98;;
40595;SDS011;26304;48.794;9.820;2023-07-31T08:38:14;1.10;;;1.00;;
40595;SDS011;26304;48.794;9.820;2023-07-31T08:43:56;2.03;;;1.05;;
40595;SDS011;26304;48.794;9.820;2023-07-31T08:49:39;1.10;;;1.00;;
40595;SDS011;26304;48.794;9.820;2023-07-31T08:55:25;0.90;;;0.90;;
40595;SDS011;26304;48.794;9.820;2023-07-31T09:01:09;1.42;;;1.10;;
40595;SDS011;26304;48.794;9.820;2023-07-31T09:06:53;1.45;;;1.23;;
40595;SDS011;26304;48.794;9.820;2023-07-31T09:12:42;2.20;;;1.10;;
40595;SDS011;26304;48.794;9.820;2023-07-31T09:18:26;1.05;;;1.00;;
40595;SDS011;26304;48.794;9.820;2023-07-31T09:24:09;1.10;;;1.00;;
40595;SDS011;26304;48.794;9.820;2023-07-31T09:29:59;1.33;;;1.10;;
40595;SDS011;26304;48.794;9.820;2023-07-31T09:35:42;1.30;;;1.20;;
40595;SDS011;26304;48.794;9.820;2023-07-31T09:41:24;1.23;;;1.13;;
40595;SDS011;26304;48.794;9.820;2023-07-31T09:47:09;3.63;;;1.10;;
40595;SDS011;26304;48.794;9.820;2023-07-31T09:53:05;2.60;;;1.10;;
40595;SDS011;26304;48.794;9.820;2023-07-31T09:58:47;4.28;;;1.40;;
40595;SDS011;26304;48.794;9.820;2023-07-31T10:04:31;1.88;;;1.23;;
40595;SDS011;26304;48.794;9.820;2023-07-31T10:10:14;3.10;;;1.30;;
40595;SDS011;26304;48.794;9.820;2023-07-31T10:15:58;1.90;;;1.33;;
40595;SDS011;26304;48.794;9.820;2023-07-31T10:21:43;2.50;;;1.42;;
40595;SDS011;26304;48.794;9.820;2023-07-31T10:27:27;1.48;;;1.27;;
40595;SDS011;26304;48.794;9.820;2023-07-31T10:33:09;8.90;;;2.40;;
40595;SDS011;26304;48.794;9.820;2023-07-31T10:38:54;4.53;;;1.67;;
40595;SDS011;26304;48.794;9.820;2023-07-31T10:44:37;2.45;;;1.50;;
40595;SDS011;26304;48.794;9.820;2023-07-31T10:50:22;6.03;;;1.92;;
40595;SDS011;26304;48.794;9.820;2023-07-31T10:56:08;5.45;;;2.20;;
40595;SDS011;26304;48.794;9.820;2023-07-31T11:01:54;4.78;;;1.70;;
40595;SDS011;26304;48.794;9.820;2023-07-31T11:07:47;3.33;;;2.00;;
40595;SDS011;26304;48.794;9.820;2023-07-31T11:13:31;4.93;;;2.22;;
40595;SDS011;26304;48.794;9.820;2023-07-31T11:19:15;4.53;;;2.05;;
40595;SDS011;26304;48.794;9.820;2023-07-31T11:25:04;3.75;;;1.83;;
40595;SDS011;26304;48.794;9.820;2023-07-31T11:30:48;1.92;;;1.70;;
40595;SDS011;26304;48.794;9.820;2023-07-31T11:36:31;6.22;;;1.67;;
40595;SDS011;26304;48.794;9.820;2023-07-31T11:42:15;3.08;;;1.90;;
40595;SDS011;26304;48.794;9.820;2023-07-31T11:47:59;2.60;;;1.67;;
40595;SDS011;26304;48.794;9.820;2023-07-31T11:53:44;3.13;;;1.90;;
40595;SDS011;26304;48.794;9.820;2023-07-31T11:59:29;3.80;;;1.65;;
40595;SDS011;26304;48.794;9.820;2023-07-31T12:05:13;3.08;;;1.88;;
40595;SDS011;26304;48.794;9.820;2023-07-31T12:11:02;3.30;;;1.63;;
40595;SDS011;26304;48.794;9.820;2023-07-31T12:16:46;2.75;;;1.70;;
40595;SDS011;26304;48.794;9.820;2023-07-31T12:22:29;2.35;;;1.50;;
40595;SDS011;26304;48.794;9.820;2023-07-31T12:28:13;1.67;;;1.50;;
40595;SDS011;26304;48.794;9.820;2023-07-31T12:33:55;2.00;;;1.60;;
40595;SDS011;26304;48.794;9.820;2023-07-31T12:39:39;2.50;;;1.52;;
40595;SDS011;26304;48.794;9.820;2023-07-31T12:45:21;2.75;;;2.00;;
40595;SDS011;26304;48.794;9.820;2023-07-31T12:51:04;2.45;;;1.90;;
40595;SDS011;26304;48.794;9.820;2023-07-31T12:56:48;1.83;;;1.73;;
40595;SDS011;26304;48.794;9.820;2023-07-31T13:02:31;2.10;;;1.95;;
40595;SDS011;26304;48.794;9.820;2023-07-31T13:08:13;1.83;;;1.48;;
40595;SDS011;26304;48.794;9.820;2023-07-31T13:13:58;2.90;;;1.85;;
40595;SDS011;26304;48.794;9.820;2023-07-31T13:19:40;2.22;;;1.70;;
40595;SDS011;26304;48.794;9.820;2023-07-31T13:25:23;2.40;;;1.70;;
40595;SDS011;26304;48.794;9.820;2023-07-31T13:31:06;1.92;;;1.60;;
40595;SDS011;26304;48.794;9.820;2023-07-31T13:36:49;2.25;;;1.58;;
40595;SDS011;26304;48.794;9.820;2023-07-31T13:42:31;2.08;;;1.88;;
40595;SDS011;26304;48.794;9.820;2023-07-31T13:48:15;2.00;;;1.77;;
40595;SDS011;26304;48.794;9.820;2023-07-31T13:53:57;2.28;;;2.08;;
40595;SDS011;26304;48.794;9.820;2023-07-31T13:59:40;2.33;;;1.98;;
40595;SDS011;26304;48.794;9.820;2023-07-31T14:05:23;3.63;;;2.10;;
40595;SDS011;26304;48.794;9.820;2023-07-31T14:11:06;4.35;;;2.55;;
40595;SDS011;26304;48.794;9.820;2023-07-31T14:16:48;3.75;;;2.13;;
40595;SDS011;26304;48.794;9.820;2023-07-31T14:22:32;4.50;;;2.00;;
40595;SDS011;26304;48.794;9.820;2023-07-31T14:28:15;3.22;;;2.08;;
40595;SDS011;26304;48.794;9.820;2023-07-31T14:33:57;2.38;;;2.10;;
40595;SDS011;26304;48.794;9.820;2023-07-31T14:39:41;3.38;;;2.17;;
40595;SDS011;26304;48.794;9.820;2023-07-31T14:45:24;3.00;;;1.83;;
40595;SDS011;26304;48.794;9.820;2023-07-31T14:51:06;3.13;;;1.98;;
40595;SDS011;26304;48.794;9.820;2023-07-31T14:56:50;1.92;;;1.77;;
40595;SDS011;26304;48.794;9.820;2023-07-31T15:02:33;2.92;;;1.60;;
40595;SDS011;26304;48.794;9.820;2023-07-31T15:08:16;2.60;;;1.80;;
40595;SDS011;26304;48.794;9.820;2023-07-31T15:14:01;3.58;;;1.92;;
40595;SDS011;26304;48.794;9.820;2023-07-31T15:19:43;3.30;;;2.10;;
40595;SDS011;26304;48.794;9.820;2023-07-31T15:25:26;3.58;;;1.83;;
40595;SDS011;26304;48.794;9.820;2023-07-31T15:31:10;4.68;;;1.98;;
40595;SDS011;26304;48.794;9.820;2023-07-31T15:36:52;3.55;;;2.22;;
40595;SDS011;26304;48.794;9.820;2023-07-31T15:42:34;2.78;;;2.00;;
40595;SDS011;26304;48.794;9.820;2023-07-31T15:48:21;2.10;;;1.77;;
40595;SDS011;26304;48.794;9.820;2023-07-31T15:54:04;2.83;;;1.98;;
40595;SDS011;26304;48.794;9.820;2023-07-31T15:59:46;5.28;;;2.22;;
40595;SDS011;26304;48.794;9.820;2023-07-31T16:05:30;1.90;;;1.80;;
40595;SDS011;26304;48.794;9.820;2023-07-31T16:11:12;2.83;;;1.90;;
40595;SDS011;26304;48.794;9.820;2023-07-31T16:16:55;2.10;;;1.90;;
40595;SDS011;26304;48.794;9.820;2023-07-31T16:22:39;1.60;;;1.50;;
40595;SDS011;26304;48.794;9.820;2023-07-31T16:28:22;2.10;;;1.90;;
40595;SDS011;26304;48.794;9.820;2023-07-31T16:34:05;2.08;;;1.88;;
40595;SDS011;26304;48.794;9.820;2023-07-31T16:39:49;2.83;;;2.33;;
40595;SDS011;26304;48.794;9.820;2023-07-31T16:45:32;2.60;;;2.05;;
40595;SDS011;26304;48.794;9.820;2023-07-31T16:51:14;2.70;;;1.83;;
40595;SDS011;26304;48.794;9.820;2023-07-31T16:56:58;3.88;;;1.95;;
40595;SDS011;26304;48.794;9.820;2023-07-31T17:02:41;2.38;;;2.17;;
40595;SDS011;26304;48.794;9.820;2023-07-31T17:08:23;3.08;;;1.90;;
40595;SDS011;26304;48.794;9.820;2023-07-31T17:14:07;2.03;;;1.90;;
40595;SDS011;26304;48.794;9.820;2023-07-31T17:19:50;4.07;;;1.80;;
40595;SDS011;26304;48.794;9.820;2023-07-31T17:25:33;2.40;;;1.80;;
40595;SDS011;26304;48.794;9.820;2023-07-31T17:31:17;2.03;;;1.80;;
40595;SDS011;26304;48.794;9.820;2023-07-31T17:36:59;1.80;;;1.70;;
40595;SDS011;26304;48.794;9.820;2023-07-31T17:42:42;2.92;;;1.90;;
40595;SDS011;26304;48.794;9.820;2023-07-31T17:48:26;1.95;;;1.80;;
40595;SDS011;26304;48.794;9.820;2023-07-31T17:54:08;2.03;;;1.85;;
40595;SDS011;26304;48.794;9.820;2023-07-31T17:59:50;2.28;;;1.80;;
40595;SDS011;26304;48.794;9.820;2023-07-31T18:05:34;2.03;;;1.92;;
40595;SDS011;26304;48.794;9.820;2023-07-31T18:11:18;2.10;;;1.80;;
40595;SDS011;26304;48.794;9.820;2023-07-31T18:17:01;2.00;;;1.90;;
40595;SDS011;26304;48.794;9.820;2023-07-31T18:22:46;2.55;;;2.15;;
40595;SDS011;26304;48.794;9.820;2023-07-31T18:28:28;2.30;;;1.92;;
40595;SDS011;26304;48.794;9.820;2023-07-31T18:34:11;1.83;;;1.73;;
40595;SDS011;26304;48.794;9.820;2023-07-31T18:39:55;1.88;;;1.77;;
40595;SDS011;26304;48.794;9.820;2023-07-31T18:45:37;2.97;;;1.67;;
40595;SDS011;26304;48.794;9.820;2023-07-31T18:51:20;2.85;;;2.10;;
40595;SDS011;26304;48.794;9.820;2023-07-31T18:57:04;6.88;;;2.17;;
40595;SDS011;26304;48.794;9.820;2023-07-31T19:02:47;6.88;;;2.30;;
40595;SDS011;26304;48.794;9.820;2023-07-31T19:08:29;4.38;;;2.22;;
40595;SDS011;26304;48.794;9.820;2023-07-31T19:14:13;3.53;;;3.22;;
40595;SDS011;26304;48.794;9.820;2023-07-31T19:19:56;4.90;;;3.20;;
40595;SDS011;26304;48.794;9.820;2023-07-31T19:25:38;4.00;;;3.40;;
40595;SDS011;26304;48.794;9.820;2023-07-31T19:31:22;3.88;;;3.47;;
40595;SDS011;26304;48.794;9.820;2023-07-31T19:37:04;3.53;;;3.20;;
40595;SDS011;26304;48.794;9.820;2023-07-31T19:42:47;5.15;;;3.42;;
40595;SDS011;26304;48.794;9.820;2023-07-31T19:48:30;3.85;;;3.30;;
40595;SDS011;26304;48.794;9.820;2023-07-31T19:54:14;4.28;;;3.30;;
40595;SDS011;26304;48.794;9.820;2023-07-31T19:59:57;4.38;;;3.00;;
40595;SDS011;26304;48.794;9.820;2023-07-31T20:05:41;4.22;;;3.53;;
40595;SDS011;26304;48.794;9.820;2023-07-31T20:11:24;3.58;;;3.08;;
40595;SDS011;26304;48.794;9.820;2023-07-31T20:17:06;6.45;;;3.33;;
40595;SDS011;26304;48.794;9.820;2023-07-31T20:22:50;3.17;;;2.88;;
40595;SDS011;26304;48.794;9.820;2023-07-31T20:28:32;4.43;;;3.13;;
40595;SDS011;26304;48.794;9.820;2023-07-31T20:34:15;4.20;;;3.00;;
40595;SDS011;26304;48.794;9.820;2023-07-31T20:39:58;3.65;;;3.35;;
40595;SDS011;26304;48.794;9.820;2023-07-31T20:45:41;4.13;;;3.20;;
40595;SDS011;26304;48.794;9.820;2023-07-31T20:51:23;4.53;;;2.90;;
40595;SDS011;26304;48.794;9.820;2023-07-31T20:57:07;3.72;;;3.08;;
40595;SDS011;26304;48.794;9.820;2023-07-31T21:02:50;3.47;;;2.88;;
40595;SDS011;26304;48.794;9.820;2023-07-31T21:08:32;3.08;;;2.78;;
40595;SDS011;26304;48.794;9.820;2023-07-31T21:14:16;3.70;;;3.40;;
40595;SDS011;26304;48.794;9.820;2023-07-31T21:19:58;3.55;;;3.25;;
40595;SDS011;26304;48.794;9.820;2023-07-31T21:25:41;3.45;;;3.03;;
40595;SDS011;26304;48.794;9.820;2023-07-31T21:31:25;3.08;;;2.83;;
40595;SDS011;26304;48.794;9.820;2023-07-31T21:37:07;4.03;;;3.17;;
40595;SDS011;26304;48.794;9.820;2023-07-31T21:42:51;4.60;;;3.58;;
40595;SDS011;26304;48.794;9.820;2023-07-31T21:48:37;3.63;;;3.33;;
40595;SDS011;26304;48.794;9.820;2023-07-31T21:54:19;3.50;;;3.20;;
40595;SDS011;26304;48.794;9.820;2023-07-31T22:00:02;3.13;;;2.67;;
40595;SDS011;26304;48.794;9.820;2023-07-31T22:05:46;3.90;;;3.03;;
40595;SDS011;26304;48.794;9.820;2023-07-31T22:11:28;3.83;;;2.83;;
40595;SDS011;26304;48.794;9.820;2023-07-31T22:17:11;3.22;;;2.92;;
40595;SDS011;26304;48.794;9.820;2023-07-31T22:22:54;7.75;;;3.20;;
40595;SDS011;26304;48.794;9.820;2023-07-31T22:28:37;3.35;;;3.05;;
40595;SDS011;26304;48.794;9.820;2023-07-31T22:34:19;3.60;;;3.30;;
40595;SDS011;26304;48.794;9.820;2023-07-31T22:40:03;3.30;;;2.97;;
40595;SDS011;26304;48.794;9.820;2023-07-31T22:45:46;3.10;;;2.80;;
40595;SDS011;26304;48.794;9.820;2023-07-31T22:51:29;3.97;;;2.53;;
40595;SDS011;26304;48.794;9.820;2023-07-31T22:57:13;3.20;;;2.90;;
40595;SDS011;26304;48.794;9.820;2023-07-31T23:02:55;3.28;;;2.95;;
40595;SDS011;26304;48.794;9.820;2023-07-31T23:08:38;3.50;;;3.05;;
40595;SDS011;26304;48.794;9.820;2023-07-31T23:14:21;3.92;;;3.47;;
40595;SDS011;26304;48.794;9.820;2023-07-31T23:20:04;3.20;;;2.90;;
40595;SDS011;26304;48.794;9.820;2023-07-31T23:25:48;4.32;;;3.08;;
40595;SDS011;26304;48.794;9.820;2023-07-31T23:31:32;4.20;;;2.90;;
40595;SDS011;26304;48.794;9.820;2023-07-31T23:37:14;3.53;;;3.08;;
40595;SDS011;26304;48.794;9.820;2023-07-31T23:42:56;3.92;;;2.85;;
40595;SDS011;26304;48.794;9.820;2023-07-31T23:48:40;3.25;;;2.95;;
40595;SDS011;26304;48.794;9.820;2023-07-31T23:54:23;2.90;;;2.70;;
